sensor_id;sensor_type;location;lat;lon;timestamp;P1;durP1;ratioP1;P2;durP2;ratioP2
7432;SDS011;32233;49.500;7.764;2023-10-09T00:01:44;15.73;;;6.90;;
7432;SDS011;32233;49.500;7.764;2023-10-09T00:04:12;13.27;;;7.03;;
7432;SDS011;32233;49.500;7.764;2023-10-09T00:06:43;12.40;;;6.73;;
7432;SDS011;32233;49.500;7.764;2023-10-09T00:09:10;14.20;;;7.13;;
7432;SDS011;32233;49.500;7.764;2023-10-09T00:11:49;14.27;;;7.50;;
7432;SDS011;32233;49.500;7.764;2023-10-09T00:14:29;13.83;;;7.03;;
7432;SDS011;32233;49.500;7.764;2023-10-09T00:16:59;16.27;;;7.10;;
7432;SDS011;32233;49.500;7.764;2023-10-09T00:19:48;11.57;;;7.00;;
7432;SDS011;32233;49.500;7.764;2023-10-09T00:22:18;14.00;;;6.97;;
7432;SDS011;32233;49.500;7.764;2023-10-09T00:24:54;14.20;;;8.00;;
7432;SDS011;32233;49.500;7.764;2023-10-09T00:27:38;13.10;;;8.17;;
7432;SDS011;32233;49.500;7.764;2023-10-09T00:30:13;13.10;;;7.37;;
7432;SDS011;32233;49.500;7.764;2023-10-09T00:32:56;10.97;;;7.27;;
7432;SDS011;32233;49.500;7.764;2023-10-09T00:35:27;12.17;;;7.60;;
7432;SDS011;32233;49.500;7.764;2023-10-09T00:38:04;14.27;;;7.40;;
7432;SDS011;32233;49.500;7.764;2023-10-09T00:40:47;14.00;;;7.47;;
7432;SDS011;32233;49.500;7.764;2023-10-09T00:43:31;12.33;;;7.30;;
7432;SDS011;32233;49.500;7.764;2023-10-09T00:45:58;12.83;;;7.77;;
7432;SDS011;32233;49.500;7.764;2023-10-09T00:48:52;12.00;;;6.83;;
7432;SDS011;32233;49.500;7.764;2023-10-09T00:51:22;13.37;;;7.20;;
7432;SDS011;32233;49.500;7.764;2023-10-09T00:53:54;18.83;;;7.90;;
7432;SDS011;32233;49.500;7.764;2023-10-09T00:56:33;14.00;;;7.80;;
7432;SDS011;32233;49.500;7.764;2023-10-09T00:59:10;13.77;;;6.93;;
7432;SDS011;32233;49.500;7.764;2023-10-09T01:01:46;13.77;;;6.87;;
7432;SDS011;32233;49.500;7.764;2023-10-09T01:04:24;13.27;;;7.70;;
7432;SDS011;32233;49.500;7.764;2023-10-09T01:06:53;13.30;;;7.17;;
7432;SDS011;32233;49.500;7.764;2023-10-09T01:09:56;14.83;;;7.63;;
7432;SDS011;32233;49.500;7.764;2023-10-09T01:12:22;11.90;;;6.63;;
7432;SDS011;32233;49.500;7.764;2023-10-09T01:14:49;12.13;;;7.10;;
7432;SDS011;32233;49.500;7.764;2023-10-09T01:17:21;16.27;;;7.43;;
7432;SDS011;32233;49.500;7.764;2023-10-09T01:20:22;14.83;;;7.23;;
7432;SDS011;32233;49.500;7.764;2023-10-09T01:22:56;12.70;;;7.60;;
7432;SDS011;32233;49.500;7.764;2023-10-09T01:25:22;15.30;;;7.37;;
7432;SDS011;32233;49.500;7.764;2023-10-09T01:27:49;14.17;;;7.87;;
7432;SDS011;32233;49.500;7.764;2023-10-09T01:30:15;16.17;;;8.00;;
7432;SDS011;32233;49.500;7.764;2023-10-09T01:32:42;14.07;;;7.47;;
7432;SDS011;32233;49.500;7.764;2023-10-09T01:35:12;16.03;;;7.83;;
7432;SDS011;32233;49.500;7.764;2023-10-09T01:37:47;17.60;;;8.67;;
7432;SDS011;32233;49.500;7.764;2023-10-09T01:40:17;14.87;;;8.03;;
7432;SDS011;32233;49.500;7.764;2023-10-09T01:43:03;10.80;;;7.33;;
7432;SDS011;32233;49.500;7.764;2023-10-09T01:45:30;14.77;;;7.90;;
7432;SDS011;32233;49.500;7.764;2023-10-09T01:48:09;12.97;;;8.13;;
7432;SDS011;32233;49.500;7.764;2023-10-09T01:50:38;14.97;;;7.53;;
7432;SDS011;32233;49.500;7.764;2023-10-09T01:53:08;18.03;;;8.03;;
7432;SDS011;32233;49.500;7.764;2023-10-09T01:55:34;13.33;;;7.37;;
7432;SDS011;32233;49.500;7.764;2023-10-09T01:58:09;10.33;;;7.00;;
7432;SDS011;32233;49.500;7.764;2023-10-09T02:00:44;13.30;;;7.13;;
7432;SDS011;32233;49.500;7.764;2023-10-09T02:03:16;11.90;;;7.63;;
7432;SDS011;32233;49.500;7.764;2023-10-09T02:05:44;17.30;;;7.27;;
7432;SDS011;32233;49.500;7.764;2023-10-09T02:08:12;14.00;;;6.80;;
7432;SDS011;32233;49.500;7.764;2023-10-09T02:10:39;15.70;;;7.30;;
7432;SDS011;32233;49.500;7.764;2023-10-09T02:13:06;15.40;;;7.03;;
7432;SDS011;32233;49.500;7.764;2023-10-09T02:15:36;13.97;;;7.30;;
7432;SDS011;32233;49.500;7.764;2023-10-09T02:18:07;13.80;;;7.33;;
7432;SDS011;32233;49.500;7.764;2023-10-09T02:23:26;14.47;;;7.43;;
7432;SDS011;32233;49.500;7.764;2023-10-09T02:26:08;12.80;;;7.57;;
7432;SDS011;32233;49.500;7.764;2023-10-09T02:28:46;13.67;;;7.80;;
7432;SDS011;32233;49.500;7.764;2023-10-09T02:31:26;14.50;;;7.80;;
7432;SDS011;32233;49.500;7.764;2023-10-09T02:34:02;18.07;;;8.43;;
7432;SDS011;32233;49.500;7.764;2023-10-09T02:36:31;22.20;;;8.67;;
7432;SDS011;32233;49.500;7.764;2023-10-09T02:38:58;15.07;;;7.50;;
7432;SDS011;32233;49.500;7.764;2023-10-09T02:41:25;13.63;;;7.93;;
7432;SDS011;32233;49.500;7.764;2023-10-09T02:43:55;13.37;;;7.37;;
7432;SDS011;32233;49.500;7.764;2023-10-09T02:46:21;15.37;;;8.07;;
7432;SDS011;32233;49.500;7.764;2023-10-09T02:48:57;10.67;;;7.23;;
7432;SDS011;32233;49.500;7.764;2023-10-09T02:51:24;13.40;;;7.40;;
7432;SDS011;32233;49.500;7.764;2023-10-09T02:53:54;11.53;;;7.50;;
7432;SDS011;32233;49.500;7.764;2023-10-09T02:56:26;13.50;;;7.10;;
7432;SDS011;32233;49.500;7.764;2023-10-09T02:59:09;14.83;;;7.67;;
7432;SDS011;32233;49.500;7.764;2023-10-09T03:01:38;10.50;;;7.10;;
7432;SDS011;32233;49.500;7.764;2023-10-09T03:04:06;12.70;;;7.67;;
7432;SDS011;32233;49.500;7.764;2023-10-09T03:06:37;13.13;;;7.20;;
7432;SDS011;32233;49.500;7.764;2023-10-09T03:09:12;11.93;;;7.27;;
7432;SDS011;32233;49.500;7.764;2023-10-09T03:11:45;14.20;;;7.80;;
7432;SDS011;32233;49.500;7.764;2023-10-09T03:14:14;12.67;;;7.53;;
7432;SDS011;32233;49.500;7.764;2023-10-09T03:16:43;13.97;;;8.03;;
7432;SDS011;32233;49.500;7.764;2023-10-09T03:19:09;12.70;;;7.90;;
7432;SDS011;32233;49.500;7.764;2023-10-09T03:21:37;14.20;;;7.90;;
7432;SDS011;32233;49.500;7.764;2023-10-09T03:24:03;13.60;;;7.60;;
7432;SDS011;32233;49.500;7.764;2023-10-09T03:26:31;16.63;;;8.00;;
7432;SDS011;32233;49.500;7.764;2023-10-09T03:28:58;18.23;;;9.00;;
7432;SDS011;32233;49.500;7.764;2023-10-09T03:31:28;18.20;;;9.43;;
7432;SDS011;32233;49.500;7.764;2023-10-09T03:33:58;18.00;;;10.30;;
7432;SDS011;32233;49.500;7.764;2023-10-09T03:36:25;19.23;;;9.53;;
7432;SDS011;32233;49.500;7.764;2023-10-09T03:38:53;16.50;;;9.20;;
7432;SDS011;32233;49.500;7.764;2023-10-09T03:41:24;17.70;;;8.10;;
7432;SDS011;32233;49.500;7.764;2023-10-09T03:43:55;16.60;;;8.30;;
7432;SDS011;32233;49.500;7.764;2023-10-09T03:46:21;15.23;;;8.53;;
7432;SDS011;32233;49.500;7.764;2023-10-09T03:48:49;16.87;;;9.13;;
7432;SDS011;32233;49.500;7.764;2023-10-09T03:51:18;19.40;;;9.23;;
7432;SDS011;32233;49.500;7.764;2023-10-09T03:53:48;17.17;;;8.77;;
7432;SDS011;32233;49.500;7.764;2023-10-09T03:56:16;19.00;;;8.43;;
7432;SDS011;32233;49.500;7.764;2023-10-09T03:58:44;15.33;;;8.70;;
7432;SDS011;32233;49.500;7.764;2023-10-09T04:01:12;16.03;;;8.43;;
7432;SDS011;32233;49.500;7.764;2023-10-09T04:03:57;12.70;;;8.03;;
7432;SDS011;32233;49.500;7.764;2023-10-09T04:06:30;15.47;;;8.20;;
7432;SDS011;32233;49.500;7.764;2023-10-09T04:11:53;18.53;;;9.43;;
7432;SDS011;32233;49.500;7.764;2023-10-09T04:14:43;14.50;;;9.00;;
7432;SDS011;32233;49.500;7.764;2023-10-09T04:17:16;13.47;;;8.37;;
7432;SDS011;32233;49.500;7.764;2023-10-09T04:19:48;12.80;;;8.37;;
7432;SDS011;32233;49.500;7.764;2023-10-09T04:22:39;14.80;;;8.67;;
7432;SDS011;32233;49.500;7.764;2023-10-09T04:25:17;14.83;;;8.60;;
7432;SDS011;32233;49.500;7.764;2023-10-09T04:27:52;20.83;;;8.37;;
7432;SDS011;32233;49.500;7.764;2023-10-09T04:30:19;13.47;;;8.20;;
7432;SDS011;32233;49.500;7.764;2023-10-09T04:32:46;15.60;;;8.80;;
7432;SDS011;32233;49.500;7.764;2023-10-09T04:35:13;17.03;;;8.33;;
7432;SDS011;32233;49.500;7.764;2023-10-09T04:37:45;15.50;;;7.77;;
7432;SDS011;32233;49.500;7.764;2023-10-09T04:40:18;17.30;;;8.20;;
7432;SDS011;32233;49.500;7.764;2023-10-09T04:43:03;14.57;;;7.97;;
7432;SDS011;32233;49.500;7.764;2023-10-09T04:45:36;12.13;;;7.57;;
7432;SDS011;32233;49.500;7.764;2023-10-09T04:48:21;13.30;;;7.73;;
7432;SDS011;32233;49.500;7.764;2023-10-09T04:51:05;14.23;;;8.50;;
7432;SDS011;32233;49.500;7.764;2023-10-09T04:53:48;20.90;;;9.10;;
7432;SDS011;32233;49.500;7.764;2023-10-09T04:56:37;18.77;;;9.57;;
7432;SDS011;32233;49.500;7.764;2023-10-09T04:59:18;16.50;;;9.30;;
7432;SDS011;32233;49.500;7.764;2023-10-09T05:01:45;17.57;;;9.23;;
7432;SDS011;32233;49.500;7.764;2023-10-09T05:04:24;16.80;;;9.10;;
7432;SDS011;32233;49.500;7.764;2023-10-09T05:07:03;16.53;;;8.93;;
7432;SDS011;32233;49.500;7.764;2023-10-09T05:09:49;13.03;;;7.87;;
7432;SDS011;32233;49.500;7.764;2023-10-09T05:12:23;13.93;;;8.67;;
7432;SDS011;32233;49.500;7.764;2023-10-09T05:14:55;15.60;;;8.40;;
7432;SDS011;32233;49.500;7.764;2023-10-09T05:17:39;13.07;;;8.47;;
7432;SDS011;32233;49.500;7.764;2023-10-09T05:20:12;16.93;;;9.43;;
7432;SDS011;32233;49.500;7.764;2023-10-09T05:22:53;15.30;;;9.63;;
7432;SDS011;32233;49.500;7.764;2023-10-09T05:25:46;16.43;;;9.83;;
7432;SDS011;32233;49.500;7.764;2023-10-09T05:28:22;15.07;;;9.43;;
7432;SDS011;32233;49.500;7.764;2023-10-09T05:30:58;16.13;;;8.27;;
7432;SDS011;32233;49.500;7.764;2023-10-09T05:33:35;14.17;;;9.00;;
7432;SDS011;32233;49.500;7.764;2023-10-09T05:36:04;17.97;;;8.90;;
7432;SDS011;32233;49.500;7.764;2023-10-09T05:38:57;17.03;;;9.20;;
7432;SDS011;32233;49.500;7.764;2023-10-09T05:41:43;14.50;;;8.70;;
7432;SDS011;32233;49.500;7.764;2023-10-09T05:44:18;17.87;;;9.13;;
7432;SDS011;32233;49.500;7.764;2023-10-09T05:47:07;16.67;;;9.30;;
7432;SDS011;32233;49.500;7.764;2023-10-09T05:49:58;17.30;;;9.03;;
7432;SDS011;32233;49.500;7.764;2023-10-09T05:52:39;15.77;;;8.37;;
7432;SDS011;32233;49.500;7.764;2023-10-09T05:55:06;17.93;;;9.20;;
7432;SDS011;32233;49.500;7.764;2023-10-09T05:57:56;13.63;;;9.10;;
7432;SDS011;32233;49.500;7.764;2023-10-09T06:00:35;15.50;;;9.03;;
7432;SDS011;32233;49.500;7.764;2023-10-09T06:03:20;12.63;;;8.53;;
7432;SDS011;32233;49.500;7.764;2023-10-09T06:05:48;12.93;;;8.53;;
7432;SDS011;32233;49.500;7.764;2023-10-09T06:08:24;14.93;;;8.87;;
7432;SDS011;32233;49.500;7.764;2023-10-09T06:11:07;14.73;;;8.63;;
7432;SDS011;32233;49.500;7.764;2023-10-09T06:13:54;12.93;;;8.47;;
7432;SDS011;32233;49.500;7.764;2023-10-09T06:16:37;15.23;;;8.93;;
7432;SDS011;32233;49.500;7.764;2023-10-09T06:19:26;16.40;;;8.60;;
7432;SDS011;32233;49.500;7.764;2023-10-09T06:21:57;15.63;;;9.07;;
7432;SDS011;32233;49.500;7.764;2023-10-09T06:24:43;19.70;;;9.30;;
7432;SDS011;32233;49.500;7.764;2023-10-09T06:27:20;13.70;;;8.67;;
7432;SDS011;32233;49.500;7.764;2023-10-09T06:29:51;17.17;;;8.80;;
7432;SDS011;32233;49.500;7.764;2023-10-09T06:32:39;17.50;;;8.63;;
7432;SDS011;32233;49.500;7.764;2023-10-09T06:35:24;15.37;;;8.87;;
7432;SDS011;32233;49.500;7.764;2023-10-09T06:37:57;14.63;;;8.83;;
7432;SDS011;32233;49.500;7.764;2023-10-09T06:40:38;14.27;;;9.30;;
7432;SDS011;32233;49.500;7.764;2023-10-09T06:43:23;13.40;;;9.10;;
7432;SDS011;32233;49.500;7.764;2023-10-09T06:45:54;17.27;;;9.17;;
7432;SDS011;32233;49.500;7.764;2023-10-09T06:48:42;16.63;;;9.67;;
7432;SDS011;32233;49.500;7.764;2023-10-09T06:51:22;16.00;;;9.23;;
7432;SDS011;32233;49.500;7.764;2023-10-09T06:53:56;14.57;;;9.73;;
7432;SDS011;32233;49.500;7.764;2023-10-09T06:56:30;15.40;;;9.50;;
7432;SDS011;32233;49.500;7.764;2023-10-09T06:59:04;15.77;;;9.20;;
7432;SDS011;32233;49.500;7.764;2023-10-09T07:01:51;16.80;;;9.47;;
7432;SDS011;32233;49.500;7.764;2023-10-09T07:04:37;15.10;;;9.27;;
7432;SDS011;32233;49.500;7.764;2023-10-09T07:07:04;16.23;;;9.60;;
7432;SDS011;32233;49.500;7.764;2023-10-09T07:09:39;18.00;;;9.33;;
7432;SDS011;32233;49.500;7.764;2023-10-09T07:12:09;17.40;;;9.47;;
7432;SDS011;32233;49.500;7.764;2023-10-09T07:14:40;15.13;;;8.63;;
7432;SDS011;32233;49.500;7.764;2023-10-09T07:17:07;16.07;;;9.23;;
7432;SDS011;32233;49.500;7.764;2023-10-09T07:20:10;18.77;;;9.03;;
7432;SDS011;32233;49.500;7.764;2023-10-09T07:22:41;15.07;;;8.10;;
7432;SDS011;32233;49.500;7.764;2023-10-09T07:25:28;14.90;;;8.23;;
7432;SDS011;32233;49.500;7.764;2023-10-09T07:28:09;14.70;;;7.93;;
7432;SDS011;32233;49.500;7.764;2023-10-09T07:30:56;14.83;;;7.80;;
7432;SDS011;32233;49.500;7.764;2023-10-09T07:33:24;13.80;;;8.40;;
7432;SDS011;32233;49.500;7.764;2023-10-09T07:35:58;18.30;;;8.50;;
7432;SDS011;32233;49.500;7.764;2023-10-09T07:38:32;13.10;;;8.80;;
7432;SDS011;32233;49.500;7.764;2023-10-09T07:41:02;17.50;;;9.13;;
7432;SDS011;32233;49.500;7.764;2023-10-09T07:43:33;17.33;;;8.37;;
7432;SDS011;32233;49.500;7.764;2023-10-09T07:49:18;14.03;;;7.60;;
7432;SDS011;32233;49.500;7.764;2023-10-09T07:51:51;13.73;;;7.27;;
7432;SDS011;32233;49.500;7.764;2023-10-09T07:54:19;18.77;;;7.63;;
7432;SDS011;32233;49.500;7.764;2023-10-09T07:57:15;15.23;;;7.03;;
7432;SDS011;32233;49.500;7.764;2023-10-09T07:59:43;15.23;;;7.70;;
7432;SDS011;32233;49.500;7.764;2023-10-09T08:02:38;14.60;;;8.83;;
7432;SDS011;32233;49.500;7.764;2023-10-09T08:05:06;13.30;;;8.67;;
7432;SDS011;32233;49.500;7.764;2023-10-09T08:07:47;14.00;;;7.83;;
7432;SDS011;32233;49.500;7.764;2023-10-09T08:10:48;16.17;;;8.00;;
7432;SDS011;32233;49.500;7.764;2023-10-09T08:13:33;14.17;;;7.30;;
7432;SDS011;32233;49.500;7.764;2023-10-09T08:16:18;10.60;;;6.73;;
7432;SDS011;32233;49.500;7.764;2023-10-09T08:18:50;13.87;;;5.67;;
7432;SDS011;32233;49.500;7.764;2023-10-09T08:21:19;12.27;;;6.00;;
7432;SDS011;32233;49.500;7.764;2023-10-09T08:23:48;14.87;;;6.77;;
7432;SDS011;32233;49.500;7.764;2023-10-09T08:26:15;12.77;;;6.93;;
7432;SDS011;32233;49.500;7.764;2023-10-09T08:29:06;14.53;;;6.10;;
7432;SDS011;32233;49.500;7.764;2023-10-09T08:31:46;13.63;;;5.87;;
7432;SDS011;32233;49.500;7.764;2023-10-09T08:34:15;14.53;;;6.60;;
7432;SDS011;32233;49.500;7.764;2023-10-09T08:36:54;14.80;;;6.37;;
7432;SDS011;32233;49.500;7.764;2023-10-09T08:39:21;13.40;;;7.10;;
7432;SDS011;32233;49.500;7.764;2023-10-09T08:41:55;12.30;;;6.57;;
7432;SDS011;32233;49.500;7.764;2023-10-09T08:44:25;11.37;;;5.97;;
7432;SDS011;32233;49.500;7.764;2023-10-09T08:46:59;16.10;;;6.33;;
7432;SDS011;32233;49.500;7.764;2023-10-09T08:49:26;10.03;;;5.80;;
7432;SDS011;32233;49.500;7.764;2023-10-09T08:51:52;15.10;;;7.03;;
7432;SDS011;32233;49.500;7.764;2023-10-09T08:54:19;13.77;;;6.00;;
7432;SDS011;32233;49.500;7.764;2023-10-09T08:56:46;11.97;;;5.83;;
7432;SDS011;32233;49.500;7.764;2023-10-09T08:59:17;16.93;;;5.77;;
7432;SDS011;32233;49.500;7.764;2023-10-09T09:01:48;10.27;;;5.97;;
7432;SDS011;32233;49.500;7.764;2023-10-09T09:04:36;9.90;;;5.63;;
7432;SDS011;32233;49.500;7.764;2023-10-09T09:07:22;17.33;;;5.77;;
7432;SDS011;32233;49.500;7.764;2023-10-09T09:09:56;11.43;;;5.57;;
7432;SDS011;32233;49.500;7.764;2023-10-09T09:12:24;12.63;;;5.70;;
7432;SDS011;32233;49.500;7.764;2023-10-09T09:14:50;18.17;;;6.80;;
7432;SDS011;32233;49.500;7.764;2023-10-09T09:17:25;16.17;;;7.73;;
7432;SDS011;32233;49.500;7.764;2023-10-09T09:19:58;15.50;;;6.97;;
7432;SDS011;32233;49.500;7.764;2023-10-09T09:22:25;14.77;;;7.20;;
7432;SDS011;32233;49.500;7.764;2023-10-09T09:24:59;14.30;;;6.73;;
7432;SDS011;32233;49.500;7.764;2023-10-09T09:27:45;14.23;;;6.67;;
7432;SDS011;32233;49.500;7.764;2023-10-09T09:30:28;12.53;;;6.63;;
7432;SDS011;32233;49.500;7.764;2023-10-09T09:33:17;11.57;;;5.43;;
7432;SDS011;32233;49.500;7.764;2023-10-09T09:35:57;9.37;;;4.50;;
7432;SDS011;32233;49.500;7.764;2023-10-09T09:38:34;11.70;;;5.10;;
7432;SDS011;32233;49.500;7.764;2023-10-09T09:41:27;8.73;;;5.23;;
7432;SDS011;32233;49.500;7.764;2023-10-09T09:43:56;12.83;;;5.20;;
7432;SDS011;32233;49.500;7.764;2023-10-09T09:46:23;10.30;;;5.30;;
7432;SDS011;32233;49.500;7.764;2023-10-09T09:49:00;11.50;;;5.30;;
7432;SDS011;32233;49.500;7.764;2023-10-09T09:51:30;15.70;;;5.27;;
7432;SDS011;32233;49.500;7.764;2023-10-09T09:53:57;15.47;;;5.50;;
7432;SDS011;32233;49.500;7.764;2023-10-09T09:56:24;13.20;;;4.83;;
7432;SDS011;32233;49.500;7.764;2023-10-09T09:58:51;15.10;;;5.37;;
7432;SDS011;32233;49.500;7.764;2023-10-09T10:01:24;9.30;;;4.60;;
7432;SDS011;32233;49.500;7.764;2023-10-09T10:03:59;12.53;;;4.77;;
7432;SDS011;32233;49.500;7.764;2023-10-09T10:06:30;6.43;;;3.53;;
7432;SDS011;32233;49.500;7.764;2023-10-09T10:08:59;6.83;;;3.70;;
7432;SDS011;32233;49.500;7.764;2023-10-09T10:11:44;11.47;;;4.43;;
7432;SDS011;32233;49.500;7.764;2023-10-09T10:14:20;7.90;;;3.67;;
7432;SDS011;32233;49.500;7.764;2023-10-09T10:17:01;10.80;;;4.40;;
7432;SDS011;32233;49.500;7.764;2023-10-09T10:22:27;8.20;;;4.20;;
7432;SDS011;32233;49.500;7.764;2023-10-09T10:24:57;10.73;;;4.70;;
7432;SDS011;32233;49.500;7.764;2023-10-09T10:27:25;8.93;;;4.27;;
7432;SDS011;32233;49.500;7.764;2023-10-09T10:32:57;11.90;;;4.87;;
7432;SDS011;32233;49.500;7.764;2023-10-09T10:35:46;9.87;;;5.60;;
7432;SDS011;32233;49.500;7.764;2023-10-09T10:38:22;12.17;;;4.80;;
7432;SDS011;32233;49.500;7.764;2023-10-09T10:43:45;13.10;;;4.57;;
7432;SDS011;32233;49.500;7.764;2023-10-09T10:46:19;11.40;;;4.40;;
7432;SDS011;32233;49.500;7.764;2023-10-09T10:48:51;8.93;;;4.00;;
7432;SDS011;32233;49.500;7.764;2023-10-09T10:51:35;9.17;;;4.40;;
7432;SDS011;32233;49.500;7.764;2023-10-09T10:54:04;8.03;;;3.87;;
7432;SDS011;32233;49.500;7.764;2023-10-09T10:56:51;14.30;;;4.50;;
7432;SDS011;32233;49.500;7.764;2023-10-09T10:59:21;9.13;;;4.17;;
7432;SDS011;32233;49.500;7.764;2023-10-09T11:01:56;8.97;;;4.27;;
7432;SDS011;32233;49.500;7.764;2023-10-09T11:04:45;10.47;;;4.40;;
7432;SDS011;32233;49.500;7.764;2023-10-09T11:07:21;9.60;;;4.37;;
7432;SDS011;32233;49.500;7.764;2023-10-09T11:09:51;14.60;;;7.20;;
7432;SDS011;32233;49.500;7.764;2023-10-09T11:12:28;9.90;;;6.77;;
7432;SDS011;32233;49.500;7.764;2023-10-09T11:15:06;11.73;;;4.53;;
7432;SDS011;32233;49.500;7.764;2023-10-09T11:18:01;9.40;;;3.93;;
7432;SDS011;32233;49.500;7.764;2023-10-09T11:20:43;12.63;;;4.80;;
7432;SDS011;32233;49.500;7.764;2023-10-09T11:23:26;8.63;;;5.00;;
7432;SDS011;32233;49.500;7.764;2023-10-09T11:26:05;7.80;;;4.27;;
7432;SDS011;32233;49.500;7.764;2023-10-09T11:29:08;9.87;;;4.00;;
7432;SDS011;32233;49.500;7.764;2023-10-09T11:32:04;8.63;;;3.80;;
7432;SDS011;32233;49.500;7.764;2023-10-09T11:34:32;6.93;;;3.57;;
7432;SDS011;32233;49.500;7.764;2023-10-09T11:37:02;7.20;;;4.30;;
7432;SDS011;32233;49.500;7.764;2023-10-09T11:39:35;10.93;;;4.27;;
7432;SDS011;32233;49.500;7.764;2023-10-09T11:44:38;7.50;;;4.47;;
7432;SDS011;32233;49.500;7.764;2023-10-09T11:47:07;8.90;;;4.13;;
7432;SDS011;32233;49.500;7.764;2023-10-09T11:49:48;12.00;;;4.47;;
7432;SDS011;32233;49.500;7.764;2023-10-09T11:52:14;8.67;;;4.00;;
7432;SDS011;32233;49.500;7.764;2023-10-09T11:55:01;11.63;;;4.07;;
7432;SDS011;32233;49.500;7.764;2023-10-09T11:57:29;7.87;;;3.80;;
7432;SDS011;32233;49.500;7.764;2023-10-09T11:59:59;9.00;;;3.70;;
7432;SDS011;32233;49.500;7.764;2023-10-09T12:02:29;7.53;;;3.97;;
7432;SDS011;32233;49.500;7.764;2023-10-09T12:04:57;7.97;;;3.90;;
7432;SDS011;32233;49.500;7.764;2023-10-09T12:07:24;7.80;;;4.03;;
7432;SDS011;32233;49.500;7.764;2023-10-09T12:09:51;8.27;;;3.90;;
7432;SDS011;32233;49.500;7.764;2023-10-09T12:12:22;6.63;;;3.47;;
7432;SDS011;32233;49.500;7.764;2023-10-09T12:14:53;10.27;;;4.03;;
7432;SDS011;32233;49.500;7.764;2023-10-09T12:17:20;6.60;;;3.93;;
7432;SDS011;32233;49.500;7.764;2023-10-09T12:19:51;5.60;;;3.40;;
7432;SDS011;32233;49.500;7.764;2023-10-09T12:22:18;9.40;;;4.57;;
7432;SDS011;32233;49.500;7.764;2023-10-09T12:24:47;12.07;;;5.37;;
7432;SDS011;32233;49.500;7.764;2023-10-09T12:27:14;7.60;;;4.53;;
7432;SDS011;32233;49.500;7.764;2023-10-09T12:29:43;11.37;;;5.37;;
7432;SDS011;32233;49.500;7.764;2023-10-09T12:32:15;10.07;;;4.27;;
7432;SDS011;32233;49.500;7.764;2023-10-09T12:34:45;8.37;;;4.30;;
7432;SDS011;32233;49.500;7.764;2023-10-09T12:37:16;7.93;;;4.17;;
7432;SDS011;32233;49.500;7.764;2023-10-09T12:39:47;7.50;;;4.47;;
7432;SDS011;32233;49.500;7.764;2023-10-09T12:42:14;6.87;;;3.90;;
7432;SDS011;32233;49.500;7.764;2023-10-09T12:44:43;10.27;;;4.17;;
7432;SDS011;32233;49.500;7.764;2023-10-09T12:47:10;20.77;;;8.47;;
7432;SDS011;32233;49.500;7.764;2023-10-09T12:49:37;12.30;;;4.87;;
7432;SDS011;32233;49.500;7.764;2023-10-09T12:52:07;14.90;;;7.43;;
7432;SDS011;32233;49.500;7.764;2023-10-09T12:54:43;14.13;;;5.83;;
7432;SDS011;32233;49.500;7.764;2023-10-09T12:57:12;9.80;;;4.57;;
7432;SDS011;32233;49.500;7.764;2023-10-09T12:59:41;9.70;;;4.53;;
7432;SDS011;32233;49.500;7.764;2023-10-09T13:02:13;14.20;;;5.63;;
7432;SDS011;32233;49.500;7.764;2023-10-09T13:04:55;8.20;;;4.20;;
7432;SDS011;32233;49.500;7.764;2023-10-09T13:07:22;8.60;;;4.27;;
7432;SDS011;32233;49.500;7.764;2023-10-09T13:09:49;10.77;;;5.27;;
7432;SDS011;32233;49.500;7.764;2023-10-09T13:12:34;12.03;;;4.63;;
7432;SDS011;32233;49.500;7.764;2023-10-09T13:15:08;10.53;;;4.43;;
7432;SDS011;32233;49.500;7.764;2023-10-09T13:17:39;10.87;;;4.30;;
7432;SDS011;32233;49.500;7.764;2023-10-09T13:20:06;12.63;;;5.60;;
7432;SDS011;32233;49.500;7.764;2023-10-09T13:22:39;7.97;;;4.20;;
7432;SDS011;32233;49.500;7.764;2023-10-09T13:25:09;8.17;;;4.37;;
7432;SDS011;32233;49.500;7.764;2023-10-09T13:27:59;13.87;;;4.93;;
7432;SDS011;32233;49.500;7.764;2023-10-09T13:30:30;9.97;;;4.63;;
7432;SDS011;32233;49.500;7.764;2023-10-09T13:32:56;7.50;;;4.37;;
7432;SDS011;32233;49.500;7.764;2023-10-09T13:35:23;9.57;;;4.50;;
7432;SDS011;32233;49.500;7.764;2023-10-09T13:38:05;7.27;;;4.07;;
7432;SDS011;32233;49.500;7.764;2023-10-09T13:40:36;10.63;;;4.20;;
7432;SDS011;32233;49.500;7.764;2023-10-09T13:43:03;8.40;;;4.13;;
7432;SDS011;32233;49.500;7.764;2023-10-09T13:45:32;9.30;;;4.10;;
7432;SDS011;32233;49.500;7.764;2023-10-09T13:48:05;8.97;;;4.43;;
7432;SDS011;32233;49.500;7.764;2023-10-09T13:50:31;12.53;;;4.57;;
7432;SDS011;32233;49.500;7.764;2023-10-09T13:53:04;11.17;;;4.40;;
7432;SDS011;32233;49.500;7.764;2023-10-09T13:55:37;10.13;;;4.30;;
7432;SDS011;32233;49.500;7.764;2023-10-09T13:58:09;11.40;;;4.80;;
7432;SDS011;32233;49.500;7.764;2023-10-09T14:00:41;9.10;;;4.20;;
7432;SDS011;32233;49.500;7.764;2023-10-09T14:03:09;7.40;;;4.30;;
7432;SDS011;32233;49.500;7.764;2023-10-09T14:05:39;8.77;;;4.30;;
7432;SDS011;32233;49.500;7.764;2023-10-09T14:08:21;9.53;;;4.73;;
7432;SDS011;32233;49.500;7.764;2023-10-09T14:11:00;6.90;;;3.90;;
7432;SDS011;32233;49.500;7.764;2023-10-09T14:13:36;10.50;;;4.67;;
7432;SDS011;32233;49.500;7.764;2023-10-09T14:16:14;8.50;;;5.10;;
7432;SDS011;32233;49.500;7.764;2023-10-09T14:19:02;9.67;;;4.23;;
7432;SDS011;32233;49.500;7.764;2023-10-09T14:21:36;6.20;;;3.83;;
7432;SDS011;32233;49.500;7.764;2023-10-09T14:24:11;9.03;;;3.93;;
7432;SDS011;32233;49.500;7.764;2023-10-09T14:26:59;8.70;;;4.50;;
7432;SDS011;32233;49.500;7.764;2023-10-09T14:29:31;7.10;;;3.90;;
7432;SDS011;32233;49.500;7.764;2023-10-09T14:31:57;8.73;;;4.47;;
7432;SDS011;32233;49.500;7.764;2023-10-09T14:34:27;8.80;;;4.40;;
7432;SDS011;32233;49.500;7.764;2023-10-09T14:37:02;10.60;;;4.63;;
7432;SDS011;32233;49.500;7.764;2023-10-09T14:39:29;10.80;;;4.27;;
7432;SDS011;32233;49.500;7.764;2023-10-09T14:41:56;8.27;;;4.40;;
7432;SDS011;32233;49.500;7.764;2023-10-09T14:44:27;9.80;;;4.77;;
7432;SDS011;32233;49.500;7.764;2023-10-09T14:46:56;9.43;;;4.10;;
7432;SDS011;32233;49.500;7.764;2023-10-09T14:49:24;10.13;;;4.40;;
7432;SDS011;32233;49.500;7.764;2023-10-09T14:51:51;7.43;;;4.23;;
7432;SDS011;32233;49.500;7.764;2023-10-09T14:54:17;7.70;;;4.43;;
7432;SDS011;32233;49.500;7.764;2023-10-09T14:56:44;9.00;;;4.17;;
7432;SDS011;32233;49.500;7.764;2023-10-09T14:59:12;9.70;;;4.60;;
7432;SDS011;32233;49.500;7.764;2023-10-09T15:01:38;9.77;;;4.90;;
7432;SDS011;32233;49.500;7.764;2023-10-09T15:04:05;9.17;;;4.10;;
7432;SDS011;32233;49.500;7.764;2023-10-09T15:06:33;9.27;;;4.03;;
7432;SDS011;32233;49.500;7.764;2023-10-09T15:09:01;8.07;;;4.10;;
7432;SDS011;32233;49.500;7.764;2023-10-09T15:11:35;9.73;;;4.20;;
7432;SDS011;32233;49.500;7.764;2023-10-09T15:14:05;6.83;;;3.80;;
7432;SDS011;32233;49.500;7.764;2023-10-09T15:16:32;5.93;;;3.93;;
7432;SDS011;32233;49.500;7.764;2023-10-09T15:18:59;8.57;;;4.37;;
7432;SDS011;32233;49.500;7.764;2023-10-09T15:21:29;9.60;;;4.67;;
7432;SDS011;32233;49.500;7.764;2023-10-09T15:23:58;7.93;;;4.00;;
7432;SDS011;32233;49.500;7.764;2023-10-09T15:26:25;7.50;;;3.97;;
7432;SDS011;32233;49.500;7.764;2023-10-09T15:29:01;9.17;;;4.40;;
7432;SDS011;32233;49.500;7.764;2023-10-09T15:31:33;11.33;;;4.80;;
7432;SDS011;32233;49.500;7.764;2023-10-09T15:34:00;14.07;;;5.30;;
7432;SDS011;32233;49.500;7.764;2023-10-09T15:36:30;9.43;;;4.70;;
7432;SDS011;32233;49.500;7.764;2023-10-09T15:39:00;7.27;;;3.90;;
7432;SDS011;32233;49.500;7.764;2023-10-09T15:41:28;9.20;;;4.60;;
7432;SDS011;32233;49.500;7.764;2023-10-09T15:43:58;10.73;;;4.13;;
7432;SDS011;32233;49.500;7.764;2023-10-09T15:46:25;10.63;;;4.73;;
7432;SDS011;32233;49.500;7.764;2023-10-09T15:49:21;8.07;;;3.93;;
7432;SDS011;32233;49.500;7.764;2023-10-09T15:52:33;9.73;;;4.63;;
7432;SDS011;32233;49.500;7.764;2023-10-09T15:58:53;9.30;;;4.13;;